Time;durP1;ratioP1;P1;durP2;ratioP2;P2;SDS_P1;SDS_P2;PMS_P1;PMS_P2;Temp;Humidity;BMP_temperature;BMP_pressure;BME280_temperature;BME280_humidity;BME280_pressure;Samples;Min_cycle;Max_cycle;Signal;HPM_P1;HPM_P2
2023/02/24 00:01:07;;;;;;;49.70;19.67;;;;;;;;;;1840793;77;25510;-47
2023/02/24 00:03:28;;;;;;;47.10;20.80;;;;;;;;;;1840729;77;27499;-47
2023/02/24 00:05:54;;;;;;;48.78;23.02;;;;;;;;;;1841665;77;25449;-47
2023/02/24 00:08:20;;;;;;;48.40;23.13;;;;;;;;;;1841534;77;25627;-48
2023/02/24 00:10:46;;;;;;;52.55;24.30;;;;;;;;;;1840022;77;27580;-47
2023/02/24 00:13:13;;;;;;;45.88;21.95;;;;;;;;;;1840175;77;25376;-47
2023/02/24 00:15:40;;;;;;;45.48;23.50;;;;;;;;;;1841288;77;27530;-50
2023/02/24 00:18:07;;;;;;;43.52;24.65;;;;;;;;;;1841705;77;25432;-48
2023/02/24 00:20:33;;;;;;;47.58;23.92;;;;;;;;;;1840841;77;25596;-49
2023/02/24 00:22:59;;;;;;;53.83;35.20;;;;;;;;;;1842196;76;25609;-47
2023/02/24 00:25:25;;;;;;;49.98;26.42;;;;;;;;;;1842877;77;25546;-51
2023/02/24 00:28:00;;;;;;;52.33;24.40;;;;;;;;;;1839284;78;27555;-47
2023/02/24 00:30:26;;;;;;;53.98;26.55;;;;;;;;;;1842542;77;25569;-48
2023/02/24 00:32:53;;;;;;;58.55;25.50;;;;;;;;;;1840183;77;25580;-50
2023/02/24 00:35:19;;;;;;;55.00;26.95;;;;;;;;;;1839538;76;25472;-48
2023/02/24 00:37:50;;;;;;;50.28;25.55;;;;;;;;;;1842802;77;32148;-48
2023/02/24 00:40:14;;;;;;;51.75;26.48;;;;;;;;;;1839418;77;27567;-49
2023/02/24 00:42:41;;;;;;;52.45;25.60;;;;;;;;;;1842705;77;25584;-47
2023/02/24 00:45:09;;;;;;;52.80;25.92;;;;;;;;;;1839983;77;25581;-48
2023/02/24 00:47:38;;;;;;;53.40;25.10;;;;;;;;;;1844003;77;25524;-48
2023/02/24 00:50:05;;;;;;;;;;;;;;;;;;1842451;77;25419;-49
2023/02/24 00:52:32;;;;;;;46.80;23.38;;;;;;;;;;1839294;78;27626;-49
2023/02/24 00:54:57;;;;;;;56.05;25.77;;;;;;;;;;1840708;77;31215;-47
2023/02/24 00:57:23;;;;;;;50.53;23.90;;;;;;;;;;1844822;77;29474;-48
2023/02/24 00:59:50;;;;;;;55.48;25.85;;;;;;;;;;1839649;77;34707;-47
2023/02/24 01:02:17;;;;;;;58.45;27.02;;;;;;;;;;1839322;78;25551;-48
2023/02/24 01:04:44;;;;;;;50.52;24.72;;;;;;;;;;1839769;77;27478;-48
2023/02/24 01:07:11;;;;;;;58.98;26.07;;;;;;;;;;1842444;77;25514;-48
2023/02/24 01:09:40;;;;;;;60.92;26.85;;;;;;;;;;1839759;77;25600;-47
2023/02/24 01:14:50;;;;;;;53.45;24.77;;;;;;;;;;1842988;77;25497;-47
2023/02/24 01:17:18;;;;;;;55.98;25.27;;;;;;;;;;1841936;77;27476;-48
2023/02/24 01:19:46;;;;;;;50.67;23.67;;;;;;;;;;1841816;76;25448;-47
2023/02/24 01:22:14;;;;;;;49.83;24.20;;;;;;;;;;1841945;77;25532;-47
2023/02/24 01:24:42;;;;;;;55.03;23.92;;;;;;;;;;1841849;77;25544;-47
2023/02/24 01:27:10;;;;;;;49.63;22.70;;;;;;;;;;1841957;76;25603;-46
2023/02/24 01:29:38;;;;;;;50.17;24.07;;;;;;;;;;1841897;77;27527;-46
2023/02/24 01:32:12;;;;;;;55.05;25.02;;;;;;;;;;1841805;77;25385;-47
2023/02/24 01:34:41;;;;;;;48.05;21.35;;;;;;;;;;1841874;76;25433;-48
2023/02/24 01:37:07;;;;;;;52.20;24.43;;;;;;;;;;1841950;77;25815;-47
2023/02/24 01:39:33;;;;;;;52.90;23.50;;;;;;;;;;1841887;77;25536;-46
2023/02/24 01:42:00;;;;;;;54.65;24.18;;;;;;;;;;1841846;77;27490;-47
2023/02/24 01:44:33;;;;;;;53.52;23.47;;;;;;;;;;1831062;77;27124;-46
2023/02/24 01:47:02;;;;;;;44.10;22.77;;;;;;;;;;1841844;76;25398;-47
2023/02/24 01:49:35;;;;;;;54.35;23.62;;;;;;;;;;1841809;77;25572;-48
2023/02/24 01:52:11;;;;;;;50.12;22.45;;;;;;;;;;1841914;77;25380;-47
2023/02/24 01:54:41;;;;;;;50.45;23.12;;;;;;;;;;1841797;77;29741;-48
2023/02/24 01:57:10;;;;;;;49.13;21.50;;;;;;;;;;1841811;77;25502;-48
2023/02/24 01:59:36;;;;;;;46.33;23.00;;;;;;;;;;1841212;77;25568;-48
2023/02/24 02:02:06;;;;;;;54.08;23.00;;;;;;;;;;1841830;76;25693;-47
2023/02/24 02:04:44;;;;;;;53.95;23.67;;;;;;;;;;1841888;77;25579;-47
2023/02/24 02:07:14;;;;;;;51.90;24.47;;;;;;;;;;1841793;76;27542;-48
2023/02/24 02:09:41;;;;;;;53.58;24.23;;;;;;;;;;1841746;77;25346;-47
2023/02/24 02:12:08;;;;;;;54.63;22.85;;;;;;;;;;1841825;77;25403;-47
2023/02/24 02:14:36;;;;;;;50.15;20.52;;;;;;;;;;1841800;76;25536;-47
2023/02/24 02:17:40;;;;;;;48.80;22.62;;;;;;;;;;1839616;77;25564;-47
2023/02/24 02:20:21;;;;;;;49.75;22.90;;;;;;;;;;1842644;77;27484;-47
2023/02/24 02:22:58;;;;;;;49.40;23.22;;;;;;;;;;1845518;77;25379;-46
2023/02/24 02:25:53;;;;;;;51.70;23.90;;;;;;;;;;1820576;77;25383;-45
2023/02/24 02:28:37;;;;;;;56.77;25.27;;;;;;;;;;1837883;77;25569;-46
2023/02/24 02:31:29;;;;;;;51.00;21.85;;;;;;;;;;1842083;77;25524;-45
2023/02/24 02:34:04;;;;;;;49.27;23.30;;;;;;;;;;1842671;77;27662;-46
2023/02/24 02:36:55;;;;;;;53.95;24.75;;;;;;;;;;1836018;77;25501;-49
2023/02/24 02:39:49;;;;;;;49.35;25.65;;;;;;;;;;1846068;77;25351;-48
2023/02/24 02:42:30;;;;;;;49.00;24.32;;;;;;;;;;1839545;77;27615;-48
2023/02/24 02:45:09;;;;;;;51.42;23.55;;;;;;;;;;1842041;77;25436;-46
2023/02/24 02:47:45;;;;;;;53.03;23.83;;;;;;;;;;1840221;77;26671;-48
2023/02/24 02:50:27;;;;;;;62.50;38.83;;;;;;;;;;1845903;77;25391;-47
2023/02/24 02:53:03;;;;;;;57.45;31.10;;;;;;;;;;1841959;77;25415;-48
2023/02/24 02:55:37;;;;;;;54.05;24.27;;;;;;;;;;1840084;77;27792;-47
2023/02/24 02:58:08;;;;;;;60.60;24.32;;;;;;;;;;1839990;77;25418;-51
2023/02/24 03:00:40;;;;;;;56.90;24.23;;;;;;;;;;1840128;77;28380;-47
2023/02/24 03:03:13;;;;;;;54.83;25.75;;;;;;;;;;1841416;76;25416;-48
2023/02/24 03:05:51;;;;;;;50.75;23.90;;;;;;;;;;1827239;78;25564;-48
2023/02/24 03:08:20;;;;;;;56.50;24.23;;;;;;;;;;1842965;77;25542;-48
2023/02/24 03:10:49;;;;;;;65.45;33.95;;;;;;;;;;1845450;77;25541;-46
2023/02/24 03:13:18;;;;;;;61.53;34.53;;;;;;;;;;1848247;77;29566;-49
2023/02/24 03:15:44;;;;;;;56.65;39.05;;;;;;;;;;1840014;77;25506;-48
2023/02/24 03:18:29;;;;;;;64.12;50.92;;;;;;;;;;1841821;77;25546;-51
2023/02/24 03:21:10;;;;;;;93.12;83.60;;;;;;;;;;1841771;77;25524;-48
2023/02/24 03:23:46;;;;;;;105.50;94.30;;;;;;;;;;1842532;76;25374;-48
2023/02/24 03:26:20;;;;;;;71.30;59.33;;;;;;;;;;1847520;76;29723;-47
2023/02/24 03:29:09;;;;;;;92.78;83.40;;;;;;;;;;1847304;76;25573;-46
2023/02/24 03:31:45;;;;;;;67.00;51.02;;;;;;;;;;1847432;76;25425;-45
2023/02/24 03:34:15;;;;;;;69.25;58.90;;;;;;;;;;1847460;76;25688;-47
2023/02/24 03:36:42;;;;;;;90.65;80.72;;;;;;;;;;1847559;76;25519;-47
2023/02/24 03:39:14;;;;;;;94.72;81.50;;;;;;;;;;1847549;77;27511;-47
2023/02/24 03:41:47;;;;;;;62.62;30.95;;;;;;;;;;1846548;76;25474;-48
2023/02/24 03:44:13;;;;;;;63.65;37.90;;;;;;;;;;1846916;76;25394;-47
2023/02/24 03:46:41;;;;;;;83.05;73.97;;;;;;;;;;1847541;77;25545;-46
2023/02/24 03:49:11;;;;;;;104.55;93.97;;;;;;;;;;1847595;76;25592;-47
2023/02/24 03:51:37;;;;;;;102.82;92.40;;;;;;;;;;1847608;77;27504;-47
2023/02/24 03:54:29;;;;;;;96.60;86.72;;;;;;;;;;1847496;76;25554;-46
2023/02/24 03:56:57;;;;;;;;;;;;;;;;;;1850090;76;25384;-45
2023/02/24 03:59:49;;;;;;;102.42;92.05;;;;;;;;;;1847422;76;25712;-46
2023/02/24 04:02:18;;;;;;;106.37;95.25;;;;;;;;;;1800770;79;25426;-46
2023/02/24 04:04:51;;;;;;;107.12;95.00;;;;;;;;;;1800875;79;27497;-48
2023/02/24 04:07:22;;;;;;;60.50;26.40;;;;;;;;;;1798398;79;25475;-47
2023/02/24 04:10:09;;;;;;;57.73;32.98;;;;;;;;;;1800785;79;25514;-46
2023/02/24 04:12:50;;;;;;;63.05;28.20;;;;;;;;;;1800706;79;27625;-47
2023/02/24 04:15:23;;;;;;;64.50;27.17;;;;;;;;;;1800737;79;25642;-46
2023/02/24 04:18:02;;;;;;;63.63;32.50;;;;;;;;;;1795894;79;29794;-46
2023/02/24 04:20:30;;;;;;;63.65;26.20;;;;;;;;;;1794996;79;25786;-46
2023/02/24 04:23:03;;;;;;;64.70;28.70;;;;;;;;;;1795503;79;25637;-48
2023/02/24 04:25:30;;;;;;;57.40;27.75;;;;;;;;;;1793978;79;27681;-45
2023/02/24 04:27:58;;;;;;;56.53;27.35;;;;;;;;;;1795411;79;25547;-45
2023/02/24 04:30:28;;;;;;;66.97;32.67;;;;;;;;;;1795654;79;27464;-45
2023/02/24 04:32:55;;;;;;;63.78;29.52;;;;;;;;;;1811299;77;25376;-46
2023/02/24 04:35:21;;;;;;;61.33;29.45;;;;;;;;;;1842205;77;25564;-46
2023/02/24 04:37:49;;;;;;;76.50;55.05;;;;;;;;;;1842152;77;25560;-46
2023/02/24 04:40:20;;;;;;;87.17;60.55;;;;;;;;;;1842176;77;25613;-45
2023/02/24 04:42:45;;;;;;;93.03;79.40;;;;;;;;;;1840245;77;29742;-46
2023/02/24 04:45:18;;;;;;;70.20;28.25;;;;;;;;;;1839910;77;33104;-44
2023/02/24 04:47:45;;;;;;;84.95;66.87;;;;;;;;;;1840210;77;25585;-46
2023/02/24 04:50:21;;;;;;;98.87;81.57;;;;;;;;;;1840773;77;25476;-45
2023/02/24 04:52:43;;;;;;;79.10;46.75;;;;;;;;;;1841455;77;25578;-45
2023/02/24 04:55:09;;;;;;;86.30;69.95;;;;;;;;;;1839838;77;27547;-44
2023/02/24 04:57:38;;;;;;;113.90;101.87;;;;;;;;;;1840297;77;25455;-44
2023/02/24 05:00:19;;;;;;;97.25;84.03;;;;;;;;;;1840688;76;30341;-44
2023/02/24 05:02:39;;;;;;;66.05;35.90;;;;;;;;;;1840468;77;25629;-44
2023/02/24 05:05:07;;;;;;;109.15;82.82;;;;;;;;;;1842002;76;25375;-47
2023/02/24 05:07:34;;;;;;;72.32;38.08;;;;;;;;;;1841232;77;27493;-46
2023/02/24 05:10:00;;;;;;;79.70;51.25;;;;;;;;;;1830269;77;25389;-44
2023/02/24 05:12:28;;;;;;;113.60;101.20;;;;;;;;;;1840362;77;28361;-48
2023/02/24 05:14:54;;;;;;;113.55;101.80;;;;;;;;;;1840034;77;27691;-46
2023/02/24 05:17:20;;;;;;;112.60;101.18;;;;;;;;;;1840399;77;32578;-46
2023/02/24 05:22:30;;;;;;;69.42;33.85;;;;;;;;;;1845569;77;25424;-45
2023/02/24 05:24:56;;;;;;;67.08;31.73;;;;;;;;;;1839852;77;25341;-46
2023/02/24 05:27:23;;;;;;;67.03;30.55;;;;;;;;;;1842755;77;25521;-44
2023/02/24 05:29:49;;;;;;;69.60;30.08;;;;;;;;;;1839504;77;32287;-44
2023/02/24 05:32:15;;;;;;;73.90;32.17;;;;;;;;;;1839199;78;27587;-45
2023/02/24 05:34:41;;;;;;;76.25;34.43;;;;;;;;;;1839093;78;27148;-43
2023/02/24 05:37:09;;;;;;;73.65;34.65;;;;;;;;;;1842994;77;25454;-45
2023/02/24 05:39:36;;;;;;;67.90;31.07;;;;;;;;;;1839181;78;25567;-44
2023/02/24 05:42:05;;;;;;;69.35;33.33;;;;;;;;;;1842625;77;25443;-44
2023/02/24 05:44:31;;;;;;;77.60;33.35;;;;;;;;;;1841386;77;27471;-44
2023/02/24 05:46:58;;;;;;;90.87;52.93;;;;;;;;;;1841421;77;25650;-44
2023/02/24 05:49:32;;;;;;;71.28;31.30;;;;;;;;;;1840317;77;25580;-44
2023/02/24 05:52:06;;;;;;;78.57;33.23;;;;;;;;;;1841546;76;25522;-45
2023/02/24 05:54:34;;;;;;;65.60;28.90;;;;;;;;;;1827254;77;25386;-45
2023/02/24 05:57:03;;;;;;;71.33;33.33;;;;;;;;;;1844656;77;27430;-44
2023/02/24 05:59:31;;;;;;;;;;;;;;;;;;1843900;77;25548;-44
2023/02/24 06:01:59;;;;;;;67.12;48.75;;;;;;;;;;1841623;77;25370;-44
2023/02/24 06:07:17;;;;;;;77.22;33.95;;;;;;;;;;1767308;80;25626;-46
2023/02/24 06:09:43;;;;;;;75.95;34.50;;;;;;;;;;1764995;79;27565;-45
2023/02/24 06:12:13;;;;;;;68.87;32.95;;;;;;;;;;1764865;81;25559;-48
2023/02/24 06:14:39;;;;;;;75.30;36.68;;;;;;;;;;1765178;81;25740;-45
2023/02/24 06:17:05;;;;;;;80.50;33.73;;;;;;;;;;1764857;80;25506;-44
2023/02/24 06:19:32;;;;;;;81.75;37.35;;;;;;;;;;1764942;81;32584;-44
2023/02/24 06:22:00;;;;;;;79.55;35.45;;;;;;;;;;1764893;81;29565;-44
2023/02/24 06:24:28;;;;;;;76.82;35.88;;;;;;;;;;1764871;81;25438;-43
2023/02/24 06:27:01;;;;;;;95.92;64.60;;;;;;;;;;1764923;81;25517;-44
2023/02/24 06:29:28;;;;;;;76.55;34.92;;;;;;;;;;1764981;81;26036;-45
2023/02/24 06:31:55;;;;;;;86.02;48.75;;;;;;;;;;1764978;81;25615;-44
2023/02/24 06:34:21;;;;;;;80.10;34.03;;;;;;;;;;1764970;81;28209;-46
2023/02/24 06:36:47;;;;;;;79.27;33.95;;;;;;;;;;1764801;81;33195;-45
2023/02/24 06:39:13;;;;;;;112.03;95.25;;;;;;;;;;1764912;81;25524;-45
2023/02/24 06:41:41;;;;;;;80.55;35.45;;;;;;;;;;1812586;77;34690;-45
2023/02/24 06:44:08;;;;;;;117.85;99.00;;;;;;;;;;1848615;77;25392;-45
2023/02/24 06:46:35;;;;;;;79.20;41.55;;;;;;;;;;1848672;77;27767;-46
2023/02/24 06:49:01;;;;;;;79.37;34.45;;;;;;;;;;1848387;76;25540;-47
2023/02/24 06:51:28;;;;;;;89.87;34.60;;;;;;;;;;1848331;77;25501;-46
2023/02/24 06:53:58;;;;;;;97.37;63.30;;;;;;;;;;1848404;77;25577;-46
2023/02/24 06:56:24;;;;;;;;;;;;;;;;;;1850831;77;25450;-46
2023/02/24 06:58:54;;;;;;;78.55;32.75;;;;;;;;;;1848105;77;28224;-48
2023/02/24 07:01:27;;;;;;;;;;;;;;;;;;1850523;76;25520;-44
2023/02/24 07:06:37;;;;;;;70.87;32.13;;;;;;;;;;1848066;77;25562;-45
2023/02/24 07:09:05;;;;;;;76.72;47.85;;;;;;;;;;1848277;77;25364;-44
2023/02/24 07:11:33;;;;;;;91.25;57.88;;;;;;;;;;1848294;76;27518;-45
2023/02/24 07:14:00;;;;;;;80.45;35.08;;;;;;;;;;1848276;77;27223;-45
2023/02/24 07:16:27;;;;;;;106.37;80.70;;;;;;;;;;1848512;77;25548;-45
2023/02/24 07:18:55;;;;;;;111.68;88.78;;;;;;;;;;1847825;77;25545;-47
2023/02/24 07:21:23;;;;;;;96.45;60.45;;;;;;;;;;1848867;77;25577;-45
2023/02/24 07:23:55;;;;;;;85.28;35.25;;;;;;;;;;1848661;77;27655;-44
2023/02/24 07:26:22;;;;;;;83.65;37.17;;;;;;;;;;1848254;76;25532;-44
2023/02/24 07:28:48;;;;;;;83.55;36.93;;;;;;;;;;1848152;76;25355;-45
2023/02/24 07:31:16;;;;;;;100.62;61.60;;;;;;;;;;1848424;77;25601;-45
2023/02/24 07:33:44;;;;;;;92.45;65.90;;;;;;;;;;1848127;77;25516;-42
2023/02/24 07:36:13;;;;;;;118.02;105.30;;;;;;;;;;1847876;76;28624;-44
2023/02/24 07:38:41;;;;;;;77.85;36.00;;;;;;;;;;1848142;77;25363;-46
2023/02/24 07:41:09;;;;;;;80.83;36.98;;;;;;;;;;1848270;77;25368;-44
2023/02/24 07:43:40;;;;;;;78.17;33.58;;;;;;;;;;1848179;77;25462;-43
2023/02/24 07:46:10;;;;;;;82.12;34.08;;;;;;;;;;1848181;76;25498;-45
2023/02/24 07:48:38;;;;;;;79.35;35.28;;;;;;;;;;1848233;77;27799;-45
2023/02/24 07:51:13;;;;;;;79.37;34.20;;;;;;;;;;1848174;77;25450;-43
2023/02/24 07:53:40;;;;;;;81.97;36.80;;;;;;;;;;1848474;77;25461;-46
2023/02/24 07:56:18;;;;;;;80.77;34.08;;;;;;;;;;1848304;77;26126;-45
2023/02/24 07:58:49;;;;;;;70.10;32.67;;;;;;;;;;1848301;77;25371;-45
2023/02/24 08:01:21;;;;;;;79.47;34.70;;;;;;;;;;1848130;77;27447;-44
2023/02/24 08:03:45;;;;;;;72.55;33.23;;;;;;;;;;1847348;77;25461;-46
2023/02/24 08:06:25;;;;;;;80.12;34.45;;;;;;;;;;1847891;77;29939;-46
2023/02/24 08:08:56;;;;;;;76.72;36.28;;;;;;;;;;1844475;77;26437;-44
2023/02/24 08:11:13;;;;;;;74.03;32.03;;;;;;;;;;1846601;77;25579;-50
2023/02/24 08:13:41;;;;;;;70.57;32.55;;;;;;;;;;1849234;77;27538;-47
2023/02/24 08:16:07;;;;;;;68.57;34.85;;;;;;;;;;1847217;77;25464;-47
2023/02/24 08:18:36;;;;;;;65.95;30.37;;;;;;;;;;1841787;77;25469;-45
2023/02/24 08:21:03;;;;;;;64.97;30.83;;;;;;;;;;1840170;76;25707;-46
2023/02/24 08:23:33;;;;;;;66.20;32.10;;;;;;;;;;1840291;77;25588;-46
2023/02/24 08:26:02;;;;;;;71.42;37.05;;;;;;;;;;1840252;77;28173;-48
2023/02/24 08:28:28;;;;;;;68.07;29.98;;;;;;;;;;1839732;77;25645;-46
2023/02/24 08:30:54;;;;;;;60.80;33.08;;;;;;;;;;1841095;77;29874;-47
2023/02/24 08:33:22;;;;;;;61.55;33.10;;;;;;;;;;1840769;77;25489;-44
2023/02/24 08:36:00;;;;;;;66.90;29.95;;;;;;;;;;1841674;76;25604;-44
2023/02/24 08:38:27;;;;;;;62.20;28.32;;;;;;;;;;1840767;77;27831;-44
2023/02/24 08:40:53;;;;;;;65.67;48.70;;;;;;;;;;1839533;77;25501;-43
2023/02/24 08:46:04;;;;;;;59.20;28.23;;;;;;;;;;1840364;76;25382;-46
2023/02/24 08:48:37;;;;;;;62.38;28.52;;;;;;;;;;1839909;77;25534;-45
2023/02/24 08:51:10;;;;;;;67.87;29.02;;;;;;;;;;1839718;77;27616;-45
2023/02/24 08:53:40;;;;;;;69.95;38.98;;;;;;;;;;1840300;77;25367;-44
2023/02/24 08:56:10;;;;;;;63.90;31.65;;;;;;;;;;1839672;77;25371;-44
2023/02/24 08:58:45;;;;;;;63.48;27.93;;;;;;;;;;1840068;77;25846;-44
2023/02/24 09:01:19;;;;;;;62.13;30.08;;;;;;;;;;1840487;77;25595;-45
2023/02/24 09:03:49;;;;;;;60.43;29.23;;;;;;;;;;1840075;77;29671;-46
2023/02/24 09:06:24;;;;;;;62.33;28.38;;;;;;;;;;1840083;77;25611;-46
2023/02/24 09:08:46;;;;;;;67.08;40.85;;;;;;;;;;1839392;77;25383;-47
2023/02/24 09:11:15;;;;;;;68.83;53.10;;;;;;;;;;1840579;77;25514;-48
2023/02/24 09:13:51;;;;;;;55.52;35.17;;;;;;;;;;1841217;77;25513;-49
2023/02/24 09:16:23;;;;;;;58.60;29.98;;;;;;;;;;1839888;77;27407;-45
2023/02/24 09:24:25;;;;;;;52.78;26.35;;;;;;;;;;1840297;77;26079;-48
2023/02/24 09:26:44;;;;;;;49.88;24.72;;;;;;;;;;1839520;77;25173;-48
2023/02/24 09:29:48;;;;;;;52.80;29.72;;;;;;;;;;1840078;77;27473;-48
2023/02/24 09:31:54;;;;;;;56.92;32.65;;;;;;;;;;1839744;77;25604;-47
2023/02/24 09:34:17;;;;;;;52.20;32.50;;;;;;;;;;1839307;77;25597;-48
2023/02/24 09:37:01;;;;;;;55.15;31.48;;;;;;;;;;1839479;77;25606;-47
2023/02/24 09:44:38;;;;;;;64.07;54.35;;;;;;;;;;1806160;79;25690;-47
2023/02/24 09:47:29;;;;;;;53.58;24.45;;;;;;;;;;1806937;79;25557;-45
2023/02/24 09:49:55;;;;;;;48.87;30.27;;;;;;;;;;1806049;78;25775;-44
2023/02/24 09:52:38;;;;;;;55.92;41.65;;;;;;;;;;1775084;80;25577;-48
2023/02/24 09:55:17;;;;;;;56.60;30.77;;;;;;;;;;1777149;79;27458;-44
2023/02/24 10:00:32;;;;;;;42.40;23.25;;;;;;;;;;1775527;80;25530;-46
2023/02/24 10:03:19;;;;;;;77.97;62.70;;;;;;;;;;1775056;80;25686;-45
2023/02/24 10:05:49;;;;;;;105.63;95.92;;;;;;;;;;1775201;80;25625;-44
2023/02/24 10:08:24;;;;;;;105.47;95.17;;;;;;;;;;1774797;79;27848;-44
2023/02/24 10:11:05;;;;;;;104.58;94.58;;;;;;;;;;1773780;80;25424;-45
2023/02/24 10:13:29;;;;;;;57.60;42.85;;;;;;;;;;1773990;79;25456;-46
2023/02/24 10:18:42;;;;;;;100.65;91.67;;;;;;;;;;1775097;79;25831;-48
2023/02/24 10:21:29;;;;;;;99.47;90.70;;;;;;;;;;1777234;80;27529;-45
2023/02/24 10:24:14;;;;;;;100.12;91.30;;;;;;;;;;1784125;80;25642;-43
2023/02/24 10:26:46;;;;;;;89.67;81.22;;;;;;;;;;1775764;80;25384;-45
2023/02/24 10:29:54;;;;;;;95.07;86.32;;;;;;;;;;1771593;80;25551;-44
2023/02/24 10:32:27;;;;;;;101.85;92.85;;;;;;;;;;1777626;80;25401;-46
2023/02/24 10:34:52;;;;;;;103.05;93.58;;;;;;;;;;1773124;79;27483;-48
2023/02/24 10:37:21;;;;;;;98.78;89.67;;;;;;;;;;1777087;80;25540;-45
2023/02/24 10:39:49;;;;;;;44.10;21.48;;;;;;;;;;1778584;80;25526;-45
2023/02/24 10:42:30;;;;;;;41.18;22.15;;;;;;;;;;1780070;80;25633;-45
2023/02/24 10:45:10;;;;;;;43.00;25.95;;;;;;;;;;1776351;79;26006;-45
2023/02/24 10:47:33;;;;;;;40.50;21.82;;;;;;;;;;1732411;82;28090;-46
2023/02/24 10:50:01;;;;;;;41.02;19.82;;;;;;;;;;1773624;80;25739;-44
2023/02/24 10:52:49;;;;;;;42.10;18.92;;;;;;;;;;1773390;80;26148;-45
2023/02/24 10:55:26;;;;;;;72.20;65.50;;;;;;;;;;1773103;80;26117;-45
2023/02/24 10:57:48;;;;;;;99.35;90.70;;;;;;;;;;1771021;80;25428;-45
2023/02/24 11:00:50;;;;;;;97.90;89.45;;;;;;;;;;1774080;80;27531;-48
2023/02/24 11:03:09;;;;;;;95.42;87.33;;;;;;;;;;1772570;80;25453;-45
2023/02/24 11:06:06;;;;;;;96.40;88.12;;;;;;;;;;1774397;80;25435;-44
2023/02/24 11:08:35;;;;;;;95.40;87.15;;;;;;;;;;1773914;80;25518;-44
2023/02/24 11:10:52;;;;;;;96.02;87.60;;;;;;;;;;1774881;79;25546;-44
2023/02/24 11:18:48;;;;;;;93.67;85.92;;;;;;;;;;1774327;80;25522;-43
2023/02/24 11:21:16;;;;;;;60.67;54.95;;;;;;;;;;1767147;80;25542;-44
2023/02/24 11:23:54;;;;;;;93.62;86.28;;;;;;;;;;1780368;79;25590;-47
2023/02/24 11:26:27;;;;;;;90.75;83.35;;;;;;;;;;1767155;80;27644;-47
2023/02/24 11:29:06;;;;;;;92.25;84.62;;;;;;;;;;1782184;79;25603;-50
2023/02/24 11:31:54;;;;;;;91.85;84.25;;;;;;;;;;1783109;79;25412;-44
2023/02/24 11:34:27;;;;;;;89.58;82.42;;;;;;;;;;1783053;80;27727;-47
2023/02/24 11:37:08;;;;;;;92.45;84.95;;;;;;;;;;1782303;80;25393;-45
2023/02/24 11:39:55;;;;;;;88.58;81.53;;;;;;;;;;1744576;82;27532;-46
2023/02/24 11:42:25;;;;;;;89.07;81.70;;;;;;;;;;1782974;79;25585;-46
2023/02/24 11:45:05;;;;;;;89.80;82.42;;;;;;;;;;1782062;80;25396;-45
2023/02/24 11:47:44;;;;;;;89.97;82.97;;;;;;;;;;1782961;79;26147;-49
2023/02/24 11:50:30;;;;;;;89.03;82.15;;;;;;;;;;1781827;79;25399;-45
2023/02/24 11:53:03;;;;;;;91.00;83.55;;;;;;;;;;1783054;80;27585;-47
2023/02/24 11:55:37;;;;;;;86.42;79.65;;;;;;;;;;1781354;80;25589;-46
2023/02/24 11:58:23;;;;;;;24.35;11.12;;;;;;;;;;1774892;80;25499;-46
2023/02/24 12:01:03;;;;;;;20.27;10.23;;;;;;;;;;1774494;80;25661;-46
2023/02/24 12:03:36;;;;;;;27.22;11.88;;;;;;;;;;1774572;80;25666;-46
2023/02/24 12:06:09;;;;;;;19.55;10.28;;;;;;;;;;1789723;80;27569;-46
2023/02/24 12:08:37;;;;;;;22.77;9.78;;;;;;;;;;1774093;80;25745;-47
2023/02/24 12:11:19;;;;;;;20.00;10.35;;;;;;;;;;1774452;80;25586;-46
2023/02/24 12:13:52;;;;;;;20.37;10.18;;;;;;;;;;1771886;80;25599;-46
2023/02/24 12:16:30;;;;;;;16.17;9.23;;;;;;;;;;1774511;80;25602;-46
2023/02/24 12:19:18;;;;;;;17.40;8.38;;;;;;;;;;1775899;80;27612;-45
2023/02/24 12:21:54;;;;;;;18.20;10.67;;;;;;;;;;1778487;79;25642;-46
2023/02/24 12:24:22;;;;;;;20.10;12.35;;;;;;;;;;1778791;80;25609;-45
2023/02/24 12:26:57;;;;;;;19.75;12.25;;;;;;;;;;1777685;80;25598;-44
2023/02/24 12:29:51;;;;;;;19.73;10.98;;;;;;;;;;1777244;80;25542;-44
2023/02/24 12:32:41;;;;;;;24.85;16.07;;;;;;;;;;1779877;80;29693;-45
2023/02/24 12:35:18;;;;;;;36.73;32.98;;;;;;;;;;1778074;80;25498;-46
2023/02/24 12:38:00;;;;;;;71.17;65.57;;;;;;;;;;1777779;79;25546;-44
2023/02/24 12:40:55;;;;;;;85.15;78.75;;;;;;;;;;1777207;80;26082;-45
2023/02/24 12:43:28;;;;;;;88.80;81.67;;;;;;;;;;1778167;79;25654;-45
2023/02/24 12:46:04;;;;;;;88.78;81.87;;;;;;;;;;1777833;80;27417;-46
2023/02/24 12:48:36;;;;;;;87.08;80.25;;;;;;;;;;1776705;80;25657;-48
2023/02/24 12:51:13;;;;;;;87.85;81.10;;;;;;;;;;1778094;79;25408;-48
2023/02/24 12:53:46;;;;;;;90.75;83.50;;;;;;;;;;1778568;80;27643;-47
2023/02/24 12:56:19;;;;;;;87.72;80.95;;;;;;;;;;1777985;79;25432;-48
2023/02/24 12:58:48;;;;;;;90.17;83.07;;;;;;;;;;1778563;80;27500;-46
2023/02/24 13:01:31;;;;;;;86.43;79.83;;;;;;;;;;1778134;80;25711;-47
2023/02/24 13:04:16;;;;;;;86.85;80.12;;;;;;;;;;1777830;80;25399;-48
2023/02/24 13:06:58;;;;;;;90.77;83.37;;;;;;;;;;1743665;82;27638;-48
2023/02/24 13:09:31;;;;;;;90.60;83.42;;;;;;;;;;1777662;79;25385;-48
2023/02/24 13:12:02;;;;;;;91.12;83.87;;;;;;;;;;1778138;80;27548;-46
2023/02/24 13:14:33;;;;;;;88.78;81.70;;;;;;;;;;1778512;80;25410;-48
2023/02/24 13:17:16;;;;;;;87.25;80.55;;;;;;;;;;1777770;80;25389;-46
2023/02/24 13:19:43;;;;;;;89.10;82.05;;;;;;;;;;1776125;79;25503;-46
2023/02/24 13:22:17;;;;;;;88.80;81.82;;;;;;;;;;1775506;80;25439;-46
2023/02/24 13:25:56;;;;;;;19.85;9.28;;;;;;;7.26;98.20;98685.53;1868260;76;34631;-46
2023/02/24 13:28:26;;;;;;;17.17;9.58;;;;;;;7.11;97.10;98682.84;1823539;78;25429;-46
2023/02/24 13:31:07;;;;;;;19.62;9.00;;;;;;;7.02;96.80;98673.27;1823261;78;27526;-45
2023/02/24 13:33:38;;;;;;;22.30;10.68;;;;;;;6.98;96.72;98674.48;1822348;78;25742;-46
2023/02/24 13:36:21;;;;;;;30.82;23.95;;;;;;;6.96;97.12;98661.11;1823339;78;25663;-45
2023/02/24 13:38:55;;;;;;;33.85;30.57;;;;;;;7.20;100.00;98659.16;1823248;78;25644;-44
2023/02/24 13:41:29;;;;;;;87.67;80.97;;;;;;;7.31;98.08;98663.61;1822120;78;25690;-45
2023/02/24 13:44:19;;;;;;;90.62;83.17;;;;;;;7.34;98.04;98664.28;1823798;78;28098;-46
2023/02/24 13:47:03;;;;;;;90.80;83.70;;;;;;;7.32;97.29;98652.53;1824229;78;25572;-46
2023/02/24 13:50:04;;;;;;;89.30;82.17;;;;;;;7.24;96.10;98655.50;1824466;78;25582;-45
2023/02/24 13:52:42;;;;;;;88.30;81.55;;;;;;;7.11;94.87;98649.23;1824372;78;25857;-46
2023/02/24 13:55:23;;;;;;;88.97;81.97;;;;;;;7.00;95.12;98645.37;1823867;78;25347;-45
2023/02/24 13:58:37;;;;;;;88.85;82.10;;;;;;;6.98;95.56;98644.10;1824483;78;28248;-46
2023/02/24 14:01:12;;;;;;;89.28;82.47;;;;;;;6.98;96.12;98639.53;1803586;78;25403;-46
2023/02/24 14:03:42;;;;;;;89.70;82.40;;;;;;;6.95;95.72;98643.40;1824412;78;25562;-46
2023/02/24 14:06:22;;;;;;;88.58;81.80;;;;;;;6.92;95.73;98628.16;1824367;78;25439;-45
2023/02/24 14:09:01;;;;;;;90.80;83.25;;;;;;;6.96;96.36;98629.64;1824211;78;25579;-44
2023/02/24 14:11:32;;;;;;;91.00;83.73;;;;;;;6.97;96.25;98632.56;1824692;78;27469;-47
2023/02/24 14:13:59;;;;;;;89.07;82.17;;;;;;;6.92;95.42;98630.84;1824343;78;25605;-46
2023/02/24 14:16:31;;;;;;;90.28;83.10;;;;;;;6.89;95.58;98630.71;1824379;78;25416;-46
2023/02/24 14:19:01;;;;;;;87.40;80.55;;;;;;;6.87;95.44;98625.66;1824409;78;25395;-47
2023/02/24 14:21:30;;;;;;;88.80;81.50;;;;;;;6.84;95.22;98629.55;1824363;77;25556;-46
2023/02/24 14:24:00;;;;;;;89.17;82.37;;;;;;;6.81;95.47;98622.94;1824380;78;27489;-45
2023/02/24 14:26:33;;;;;;;88.35;81.05;;;;;;;6.82;95.54;98627.19;1824375;78;25518;-49
2023/02/24 14:29:00;;;;;;;86.08;79.67;;;;;;;6.82;95.73;98628.53;1823148;78;25681;-47
2023/02/24 14:31:28;;;;;;;29.63;25.72;;;;;;;6.82;95.54;98621.81;1824336;78;25571;-46
2023/02/24 14:34:07;;;;;;;19.50;10.53;;;;;;;6.85;95.97;98628.45;1804043;78;25632;-45
2023/02/24 14:36:41;;;;;;;23.18;10.05;;;;;;;6.81;95.17;98624.28;1823833;78;27583;-44
2023/02/24 14:39:24;;;;;;;23.35;10.75;;;;;;;6.84;95.28;98624.17;1823681;78;25506;-45
2023/02/24 14:42:03;;;;;;;26.82;12.78;;;;;;;6.88;95.64;98621.09;1823791;78;25616;-46
2023/02/24 14:44:30;;;;;;;89.13;82.10;;;;;;;6.90;95.59;98610.80;1823719;78;25431;-46
2023/02/24 14:47:00;;;;;;;88.37;81.70;;;;;;;6.95;95.83;98597.70;1823799;78;25514;-45
2023/02/24 14:49:31;;;;;;;91.92;83.85;;;;;;;7.08;96.65;98595.33;1823819;78;28203;-47
2023/02/24 14:52:08;;;;;;;88.10;81.20;;;;;;;7.16;95.68;98589.67;1823736;78;25439;-46
2023/02/24 14:55:05;;;;;;;23.20;13.28;;;;;;;7.16;94.73;98589.11;1823794;78;25521;-47
2023/02/24 14:57:49;;;;;;;90.60;83.47;;;;;;;7.10;93.94;98578.34;1823770;78;25711;-46
2023/02/24 15:00:38;;;;;;;26.05;17.07;;;;;;;7.02;93.60;98579.95;1817456;78;25578;-48